Time;durP1;ratioP1;P1;durP2;ratioP2;P2;SDS_P1;SDS_P2;PMS_P1;PMS_P2;Temp;Humidity;BMP_temperature;BMP_pressure;BME280_temperature;BME280_humidity;BME280_pressure;Samples;Min_cycle;Max_cycle;Signal;HPM_P1;HPM_P2
2023/09/13 00:01:58;;;;;;;7.43;2.03;;;;;;;11.22;100.00;101131.16;4787146;29;20038;-79
2023/09/13 00:04:25;;;;;;;10.02;1.85;;;;;;;11.20;100.00;101127.78;4778944;29;20034;-79
2023/09/13 00:06:54;;;;;;;4.55;1.75;;;;;;;11.18;100.00;101126.25;4785638;29;20037;-79
2023/09/13 00:09:22;;;;;;;2.90;1.50;;;;;;;11.09;100.00;101119.91;4794756;29;20045;-79
2023/09/13 00:11:50;;;;;;;3.75;1.70;;;;;;;11.07;100.00;101111.28;4807917;29;20038;-79
2023/09/13 00:14:17;;;;;;;4.65;1.70;;;;;;;11.02;100.00;101114.34;4770226;29;20042;-79
2023/09/13 00:16:46;;;;;;;3.00;1.58;;;;;;;11.01;100.00;101116.13;4818729;29;20034;-79
2023/09/13 00:19:15;;;;;;;7.90;1.92;;;;;;;10.97;100.00;101111.22;4786648;29;20460;-78
2023/09/13 00:21:45;;;;;;;3.88;1.67;;;;;;;10.96;100.00;101122.78;4823982;29;20046;-78
2023/09/13 00:24:14;;;;;;;3.83;1.60;;;;;;;10.87;100.00;101114.66;4781851;29;20054;-80
2023/09/13 00:26:42;;;;;;;3.78;1.65;;;;;;;10.83;100.00;101110.59;4806983;29;20099;-80
2023/09/13 00:29:11;;;;;;;4.57;1.58;;;;;;;10.79;100.00;101120.59;4810389;29;20467;-80
2023/09/13 00:31:39;;;;;;;5.95;2.55;;;;;;;10.70;100.00;101123.16;4778904;29;20747;-86
2023/09/13 00:34:08;;;;;;;7.55;1.92;;;;;;;10.63;100.00;101118.41;4788285;29;20573;-86
2023/09/13 00:36:35;;;;;;;5.25;1.80;;;;;;;10.58;100.00;101123.22;4778970;29;20579;-86
2023/09/13 00:39:04;;;;;;;3.53;1.77;;;;;;;10.59;100.00;101121.44;4798641;29;20061;-86
2023/09/13 00:41:32;;;;;;;5.63;1.80;;;;;;;10.56;100.00;101113.75;4779483;29;20077;-85
2023/09/13 00:44:00;;;;;;;3.38;1.95;;;;;;;10.54;100.00;101124.47;4766574;29;20038;-86
2023/09/13 00:46:28;;;;;;;4.55;1.75;;;;;;;10.47;100.00;101128.56;4792101;29;20038;-86
2023/09/13 00:48:57;;;;;;;3.70;1.50;;;;;;;10.44;100.00;101129.63;4778652;29;20095;-86
2023/09/13 00:51:25;;;;;;;5.22;1.83;;;;;;;10.33;100.00;101129.66;4794245;29;20050;-85
2023/09/13 00:53:53;;;;;;;3.00;1.30;;;;;;;10.27;100.00;101123.91;4775918;29;20122;-86
2023/09/13 00:56:21;;;;;;;4.90;1.48;;;;;;;10.24;100.00;101124.16;4790835;29;20088;-85
2023/09/13 00:58:51;;;;;;;3.17;1.25;;;;;;;10.28;100.00;101132.69;4793328;29;20062;-86
2023/09/13 01:01:21;;;;;;;5.28;1.40;;;;;;;10.25;100.00;101135.56;4811695;29;20035;-86
2023/09/13 01:03:49;;;;;;;3.38;1.30;;;;;;;10.17;100.00;101134.41;4803796;29;20126;-85
2023/09/13 01:06:18;;;;;;;2.83;1.45;;;;;;;10.17;100.00;101128.28;4792795;29;20042;-84
2023/09/13 01:08:47;;;;;;;2.88;1.63;;;;;;;10.17;100.00;101120.34;4788185;29;20132;-85
2023/09/13 01:11:15;;;;;;;2.58;1.30;;;;;;;10.21;100.00;101115.66;4810240;29;20034;-84
2023/09/13 01:13:43;;;;;;;2.28;1.40;;;;;;;10.21;100.00;101121.75;4806691;29;20037;-84
2023/09/13 01:16:23;;;;;;;4.10;1.40;;;;;;;10.20;100.00;101122.75;4824646;29;20115;-85
2023/09/13 01:19:18;;;;;;;2.25;1.23;;;;;;;10.23;100.00;101121.63;4788624;29;20038;-86
2023/09/13 01:22:33;;;;;;;4.63;1.17;;;;;;;10.20;100.00;101125.38;4789412;29;20391;-83
2023/09/13 01:25:38;;;;;;;2.47;1.40;;;;;;;10.16;100.00;101129.25;4798318;29;20124;-85
2023/09/13 01:28:23;;;;;;;3.15;1.40;;;;;;;10.14;100.00;101129.38;4827494;29;20042;-86
2023/09/13 01:30:54;;;;;;;3.22;1.70;;;;;;;10.16;100.00;101131.91;4821227;29;20484;-85
2023/09/13 01:33:22;;;;;;;4.40;1.45;;;;;;;10.12;100.00;101141.84;4842118;29;20069;-85
2023/09/13 01:35:51;;;;;;;2.53;1.40;;;;;;;10.12;100.00;101136.56;4822968;29;20033;-86
2023/09/13 01:38:18;;;;;;;2.33;1.60;;;;;;;10.16;100.00;101131.91;4824626;29;20057;-84
2023/09/13 01:40:50;;;;;;;3.53;1.77;;;;;;;10.13;100.00;101130.31;4811190;29;20502;-84
2023/09/13 01:43:21;;;;;;;4.80;1.83;;;;;;;10.10;100.00;101129.72;4809000;29;20097;-78
2023/09/13 01:45:53;;;;;;;3.30;1.40;;;;;;;10.10;100.00;101127.06;4801830;29;20046;-85
2023/09/13 01:48:24;;;;;;;2.25;1.40;;;;;;;10.08;100.00;101127.19;4816824;29;20126;-85
2023/09/13 01:50:54;;;;;;;5.28;1.50;;;;;;;10.05;100.00;101120.38;4809250;29;20566;-85
2023/09/13 01:53:24;;;;;;;3.03;1.70;;;;;;;10.04;100.00;101123.16;4823192;29;20049;-86
2023/09/13 01:55:54;;;;;;;2.55;1.48;;;;;;;9.99;100.00;101123.50;4821884;29;20046;-86
2023/09/13 01:58:23;;;;;;;2.03;1.48;;;;;;;9.94;100.00;101117.75;4800433;29;20504;-85
2023/09/13 02:00:52;;;;;;;2.90;1.45;;;;;;;9.91;100.00;101115.38;4794088;29;20038;-85
2023/09/13 02:03:20;;;;;;;13.13;1.75;;;;;;;9.90;100.00;101119.81;4790177;29;20045;-87
2023/09/13 02:05:47;;;;;;;2.20;1.35;;;;;;;9.90;100.00;101116.34;4788779;29;20050;-86
2023/09/13 02:08:15;;;;;;;1.92;1.58;;;;;;;9.89;100.00;101109.38;4810249;29;20073;-87
2023/09/13 02:10:48;;;;;;;7.55;1.60;;;;;;;9.94;100.00;101120.41;4792925;29;20039;-87
2023/09/13 02:13:15;;;;;;;3.92;1.58;;;;;;;9.90;100.00;101124.25;4785161;29;20042;-84
2023/09/13 02:15:45;;;;;;;3.08;1.67;;;;;;;9.90;100.00;101133.03;4799757;29;20506;-86
2023/09/13 02:18:16;;;;;;;3.97;1.63;;;;;;;9.89;100.00;101138.44;4774409;29;20034;-78
2023/09/13 02:20:46;;;;;;;3.42;1.70;;;;;;;9.89;100.00;101131.34;4802931;29;20051;-84
2023/09/13 02:23:16;;;;;;;3.10;1.77;;;;;;;9.89;100.00;101130.50;4791332;29;20040;-85
2023/09/13 02:25:46;;;;;;;5.05;1.30;;;;;;;9.87;100.00;101128.00;4806466;29;20039;-85
2023/09/13 02:28:17;;;;;;;8.68;1.70;;;;;;;9.82;100.00;101134.59;4820144;29;20099;-85
2023/09/13 02:30:46;;;;;;;2.85;1.40;;;;;;;9.73;100.00;101130.91;4771435;29;20042;-85
2023/09/13 02:33:15;;;;;;;7.53;1.52;;;;;;;9.66;100.00;101134.03;4773745;29;21019;-86
2023/09/13 02:35:45;;;;;;;3.38;1.38;;;;;;;9.62;100.00;101123.81;4806352;29;20730;-86
2023/09/13 02:38:12;;;;;;;6.63;1.60;;;;;;;9.51;100.00;101128.13;4791493;29;20045;-86
2023/09/13 02:40:40;;;;;;;2.40;1.50;;;;;;;9.47;100.00;101124.06;4803326;29;20200;-84
2023/09/13 02:43:08;;;;;;;1.85;1.10;;;;;;;9.45;100.00;101123.34;4788936;29;20055;-86
2023/09/13 02:45:37;;;;;;;2.38;1.25;;;;;;;9.43;100.00;101122.59;4791476;29;20042;-86
2023/09/13 02:48:05;;;;;;;2.20;1.25;;;;;;;9.38;100.00;101122.97;4792768;29;20095;-85
2023/09/13 02:50:33;;;;;;;9.40;1.15;;;;;;;9.39;100.00;101121.19;4789922;29;20070;-86
2023/09/13 02:53:01;;;;;;;2.58;1.50;;;;;;;9.38;100.00;101111.59;4810250;29;20066;-85
2023/09/13 02:55:31;;;;;;;4.78;1.95;;;;;;;9.30;100.00;101104.28;4805956;29;20038;-84
2023/09/13 02:58:01;;;;;;;2.78;1.58;;;;;;;9.23;100.00;101101.28;4827974;29;20049;-85
2023/09/13 03:00:30;;;;;;;3.33;1.30;;;;;;;9.21;100.00;101100.53;4837286;29;20053;-84
2023/09/13 03:02:59;;;;;;;6.88;1.80;;;;;;;9.17;100.00;101101.75;4791553;29;20030;-84
2023/09/13 03:05:27;;;;;;;4.25;1.33;;;;;;;9.16;100.00;101108.81;4802598;29;20080;-85
2023/09/13 03:07:59;;;;;;;4.60;2.08;;;;;;;9.18;100.00;101098.16;4789271;29;20073;-86
2023/09/13 03:10:28;;;;;;;8.73;3.22;;;;;;;9.07;100.00;101112.16;4800526;29;20136;-86
2023/09/13 03:12:58;;;;;;;6.25;2.28;;;;;;;9.01;100.00;101107.38;4819717;29;20071;-85
2023/09/13 03:15:32;;;;;;;5.57;2.58;;;;;;;8.97;100.00;101103.25;4809104;29;20052;-86
2023/09/13 03:18:00;;;;;;;8.95;3.88;;;;;;;8.93;100.00;101100.88;4803159;29;20064;-84
2023/09/13 03:20:29;;;;;;;9.40;3.50;;;;;;;8.92;100.00;101101.84;4787096;29;20066;-86
2023/09/13 03:22:57;;;;;;;5.03;2.50;;;;;;;8.83;100.00;101096.41;4799970;29;20042;-86
2023/09/13 03:25:26;;;;;;;5.03;3.08;;;;;;;8.85;100.00;101100.63;4803698;29;20491;-85
2023/09/13 03:27:56;;;;;;;7.47;2.03;;;;;;;8.81;100.00;101099.16;4821850;29;20121;-80
2023/09/13 03:30:26;;;;;;;7.05;2.40;;;;;;;8.72;100.00;101103.34;4817330;29;20094;-81
2023/09/13 03:32:56;;;;;;;5.93;2.10;;;;;;;8.76;100.00;101109.25;4821825;29;20125;-86
2023/09/13 03:35:25;;;;;;;3.38;1.98;;;;;;;8.83;100.00;101096.41;4822263;29;20536;-85
2023/09/13 03:37:53;;;;;;;3.28;1.85;;;;;;;8.85;100.00;101100.63;4811543;29;20161;-81
2023/09/13 03:40:20;;;;;;;3.10;1.48;;;;;;;8.88;100.00;101097.75;4794716;29;20041;-85
2023/09/13 03:42:48;;;;;;;3.40;1.85;;;;;;;8.80;100.00;101092.22;4795276;29;20038;-86
2023/09/13 03:45:17;;;;;;;4.32;2.00;;;;;;;8.78;100.00;101092.34;4786114;29;20088;-84
2023/09/13 03:47:45;;;;;;;3.70;1.90;;;;;;;8.77;100.00;101079.28;4796410;29;20069;-85
2023/09/13 03:50:14;;;;;;;5.63;1.80;;;;;;;8.67;100.00;101077.34;4792973;29;20638;-86
2023/09/13 03:52:41;;;;;;;3.65;1.80;;;;;;;8.55;100.00;101079.09;4816241;29;20076;-85
2023/09/13 03:55:11;;;;;;;5.03;1.13;;;;;;;8.62;100.00;101079.47;4818507;29;20068;-86
2023/09/13 03:57:41;;;;;;;5.28;1.88;;;;;;;8.69;100.00;101078.03;4794368;29;20046;-85
2023/09/13 04:00:13;;;;;;;3.40;1.40;;;;;;;8.69;100.00;101074.59;4785992;29;20042;-85
2023/09/13 04:02:44;;;;;;;4.20;1.63;;;;;;;8.64;100.00;101077.59;4818826;29;20549;-85
2023/09/13 04:05:14;;;;;;;2.20;1.13;;;;;;;8.61;100.00;101080.44;4803985;29;20045;-85
2023/09/13 04:07:44;;;;;;;2.83;1.60;;;;;;;8.55;100.00;101073.81;4790400;29;20049;-85
2023/09/13 04:10:14;;;;;;;3.58;1.48;;;;;;;8.45;100.00;101072.81;4801065;29;20045;-80
2023/09/13 04:12:44;;;;;;;3.15;1.40;;;;;;;8.34;100.00;101071.00;4819061;29;20054;-84
2023/09/13 04:15:13;;;;;;;2.85;1.35;;;;;;;8.30;100.00;101075.63;4789037;29;20495;-84
2023/09/13 04:17:42;;;;;;;3.47;1.42;;;;;;;8.25;100.00;101077.75;4804607;29;20109;-85
2023/09/13 04:20:11;;;;;;;5.15;1.70;;;;;;;8.28;100.00;101072.25;4813968;29;20064;-85
2023/09/13 04:22:38;;;;;;;3.17;1.52;;;;;;;8.24;100.00;101070.81;4789016;29;20034;-85
2023/09/13 04:25:06;;;;;;;3.83;1.63;;;;;;;8.22;100.00;101072.72;4802948;29;20069;-85
2023/09/13 04:27:34;;;;;;;5.38;1.73;;;;;;;8.19;100.00;101070.31;4802833;29;20046;-85
2023/09/13 04:30:02;;;;;;;8.13;2.40;;;;;;;8.16;100.00;101073.19;4802260;29;20038;-86
2023/09/13 04:32:30;;;;;;;10.68;3.08;;;;;;;8.07;100.00;101075.53;4804129;29;20046;-85
2023/09/13 04:34:59;;;;;;;8.13;2.63;;;;;;;8.07;100.00;101070.25;4804894;29;20695;-86
2023/09/13 04:37:27;;;;;;;2.65;1.10;;;;;;;8.09;100.00;101061.44;4802556;29;20076;-79
2023/09/13 04:39:57;;;;;;;3.83;1.73;;;;;;;8.12;100.00;101069.09;4811995;29;20062;-78
2023/09/13 04:42:25;;;;;;;4.00;1.70;;;;;;;8.13;100.00;101070.75;4818967;29;20053;-85
2023/09/13 04:44:53;;;;;;;4.00;1.60;;;;;;;8.18;100.00;101064.22;4805217;29;20039;-84
2023/09/13 04:47:20;;;;;;;22.88;2.90;;;;;;;8.21;100.00;101070.19;4788966;29;20043;-83
2023/09/13 04:49:48;;;;;;;24.95;3.00;;;;;;;8.26;100.00;101058.38;4810936;29;20042;-86
2023/09/13 04:52:16;;;;;;;18.70;2.28;;;;;;;8.19;100.00;101059.78;4826599;29;20068;-84
2023/09/13 04:54:43;;;;;;;57.03;2.90;;;;;;;8.09;100.00;101064.06;4812577;29;20042;-85
2023/09/13 04:57:12;;;;;;;71.70;3.28;;;;;;;7.93;100.00;101054.66;4796104;29;20033;-78
2023/09/13 04:59:42;;;;;;;83.70;3.00;;;;;;;7.84;100.00;101057.94;4814995;29;20101;-84
2023/09/13 05:02:11;;;;;;;45.90;2.20;;;;;;;7.77;100.00;101057.56;4812506;29;20042;-85
2023/09/13 05:04:39;;;;;;;8.52;1.83;;;;;;;7.85;100.00;101062.25;4796662;29;20137;-85
2023/09/13 05:07:08;;;;;;;35.08;2.20;;;;;;;7.88;100.00;101060.25;4792119;29;20057;-85
2023/09/13 05:09:37;;;;;;;77.97;2.97;;;;;;;7.86;100.00;101063.94;4807316;29;20736;-84
2023/09/13 05:12:06;;;;;;;12.77;2.05;;;;;;;7.74;100.00;101055.97;4809073;29;20098;-83
2023/09/13 05:14:36;;;;;;;11.75;1.70;;;;;;;7.75;100.00;101068.19;4810892;29;20038;-84
2023/09/13 05:17:04;;;;;;;168.73;3.97;;;;;;;7.74;100.00;101063.84;4808943;29;20030;-86
2023/09/13 05:19:32;;;;;;;56.60;2.05;;;;;;;7.61;100.00;101061.28;4810158;29;20042;-84
2023/09/13 05:21:59;;;;;;;44.20;2.03;;;;;;;7.64;100.00;101062.84;4797993;29;20041;-84
2023/09/13 05:24:29;;;;;;;12.50;1.67;;;;;;;7.73;100.00;101059.56;4811044;29;20038;-84
2023/09/13 05:26:59;;;;;;;1.80;1.40;;;;;;;7.81;100.00;101059.84;4825623;29;20046;-85
2023/09/13 05:29:29;;;;;;;4.25;2.08;;;;;;;7.87;100.00;101055.09;4805670;29;20039;-84
2023/09/13 05:31:59;;;;;;;7.22;1.70;;;;;;;7.91;100.00;101044.25;4797407;29;20046;-81
2023/09/13 05:34:28;;;;;;;2.03;1.27;;;;;;;7.96;100.00;101043.91;4801083;29;20039;-83
2023/09/13 05:36:56;;;;;;;1.80;1.40;;;;;;;8.00;100.00;101049.75;4807469;29;20054;-84
2023/09/13 05:39:24;;;;;;;11.75;1.52;;;;;;;8.01;100.00;101054.91;4814881;29;20113;-83
2023/09/13 05:41:54;;;;;;;2.33;1.55;;;;;;;7.93;100.00;101059.91;4791926;29;20084;-84
2023/09/13 05:44:24;;;;;;;18.13;1.88;;;;;;;7.91;100.00;101061.81;4824758;29;20049;-85
2023/09/13 05:46:52;;;;;;;3.13;1.25;;;;;;;7.85;100.00;101060.44;4809587;29;20069;-84
2023/09/13 05:49:20;;;;;;;2.38;1.10;;;;;;;7.75;100.00;101060.28;4805693;29;20042;-84
2023/09/13 05:51:48;;;;;;;1.25;1.15;;;;;;;7.69;100.00;101064.19;4808004;29;20133;-84
2023/09/13 05:54:15;;;;;;;1.63;1.17;;;;;;;7.73;100.00;101064.81;4826463;29;20195;-84
2023/09/13 05:56:44;;;;;;;1.20;0.88;;;;;;;7.75;100.00;101070.81;4807651;29;20029;-83
2023/09/13 05:59:12;;;;;;;1.00;0.88;;;;;;;7.75;100.00;101078.72;4791993;29;20057;-80
2023/09/13 06:01:40;;;;;;;2.40;0.80;;;;;;;7.75;100.00;101080.50;4811108;29;20035;-86
2023/09/13 06:04:09;;;;;;;1.98;1.10;;;;;;;7.75;100.00;101072.59;4803032;29;20035;-84
2023/09/13 06:06:39;;;;;;;1.75;0.90;;;;;;;7.79;100.00;101079.31;4774435;29;20057;-85
2023/09/13 06:09:08;;;;;;;2.50;1.20;;;;;;;7.78;100.00;101072.38;4805258;29;20038;-85
2023/09/13 06:11:35;;;;;;;1.42;0.95;;;;;;;7.75;100.00;101072.59;4793770;29;20164;-85
2023/09/13 06:14:10;;;;;;;1.52;1.10;;;;;;;7.78;100.00;101075.88;4805755;29;20095;-85
2023/09/13 06:16:40;;;;;;;1.30;0.93;;;;;;;7.86;100.00;101088.47;4819703;29;20512;-85
2023/09/13 06:19:10;;;;;;;1.23;1.10;;;;;;;7.90;100.00;101079.38;4788879;29;20044;-85
2023/09/13 06:21:39;;;;;;;4.45;0.98;;;;;;;7.97;100.00;101079.78;4806116;29;20492;-84
2023/09/13 06:24:09;;;;;;;0.88;0.75;;;;;;;8.06;100.00;101086.16;4806203;29;20030;-85
2023/09/13 06:26:39;;;;;;;1.23;0.93;;;;;;;8.10;100.00;101087.66;4805929;29;20046;-84
2023/09/13 06:29:10;;;;;;;3.13;1.00;;;;;;;8.11;100.00;101091.09;4803088;29;20547;-82
2023/09/13 06:31:40;;;;;;;1.10;1.00;;;;;;;8.11;100.00;101091.09;4810529;29;20035;-82
2023/09/13 06:34:10;;;;;;;1.05;0.90;;;;;;;8.10;100.00;101092.06;4797741;29;20543;-84
2023/09/13 06:36:40;;;;;;;4.68;1.63;;;;;;;8.12;100.00;101098.88;4817621;29;20037;-85
2023/09/13 06:39:08;;;;;;;2.88;1.30;;;;;;;8.15;100.00;101103.94;4784711;29;20046;-83
2023/09/13 06:41:35;;;;;;;1.45;0.95;;;;;;;8.18;100.00;101103.72;4771444;29;20045;-85
2023/09/13 06:44:08;;;;;;;2.72;1.40;;;;;;;8.13;100.00;101110.25;4791175;29;20038;-83
2023/09/13 06:46:39;;;;;;;2.10;1.10;;;;;;;8.06;100.00;101105.44;4822387;29;20535;-84
2023/09/13 06:49:09;;;;;;;2.53;1.13;;;;;;;7.99;100.00;101098.97;4774311;29;20046;-85
2023/09/13 06:51:37;;;;;;;2.03;0.88;;;;;;;7.99;100.00;101106.84;4806517;29;20919;-85
2023/09/13 06:54:05;;;;;;;1.55;0.75;;;;;;;7.97;100.00;101095.59;4818673;29;20122;-78
2023/09/13 06:56:33;;;;;;;2.17;1.20;;;;;;;7.97;100.00;101100.84;4786052;29;20125;-78
2023/09/13 06:59:00;;;;;;;2.10;1.30;;;;;;;8.02;100.00;101109.28;4803963;29;20057;-83
2023/09/13 07:01:29;;;;;;;1.70;0.90;;;;;;;8.11;100.00;101104.25;4827409;29;20052;-79
2023/09/13 07:03:57;;;;;;;4.22;0.95;;;;;;;8.18;100.00;101111.63;4821109;29;20094;-84
2023/09/13 07:06:26;;;;;;;2.10;1.38;;;;;;;8.32;100.00;101115.03;4816400;29;20042;-83
2023/09/13 07:08:53;;;;;;;1.67;1.20;;;;;;;8.35;100.00;101108.69;4816727;29;20446;-83
2023/09/13 07:11:22;;;;;;;2.20;1.25;;;;;;;8.49;100.00;101115.59;4805900;29;20046;-82
2023/09/13 07:13:50;;;;;;;6.55;1.42;;;;;;;8.56;100.00;101117.69;4809586;29;20038;-83
2023/09/13 07:16:18;;;;;;;2.33;1.38;;;;;;;8.68;100.00;101113.28;4804783;29;20129;-84
2023/09/13 07:18:45;;;;;;;3.60;1.70;;;;;;;8.72;100.00;101106.00;4809529;29;20040;-83
2023/09/13 07:21:13;;;;;;;2.63;1.75;;;;;;;8.80;100.00;101098.34;4819580;29;20376;-83
2023/09/13 07:23:41;;;;;;;2.05;1.05;;;;;;;8.82;100.00;101095.59;4803323;29;20091;-82
2023/09/13 07:26:09;;;;;;;5.25;2.35;;;;;;;8.86;100.00;101093.53;4834740;29;20093;-79
2023/09/13 07:28:37;;;;;;;2.58;1.95;;;;;;;8.79;100.00;101086.09;4804306;29;20050;-80
2023/09/13 07:31:07;;;;;;;6.38;2.20;;;;;;;8.69;100.00;101078.03;4792234;29;20073;-77
2023/09/13 07:33:35;;;;;;;2.83;1.70;;;;;;;8.60;100.00;101086.66;4806750;29;20038;-78
2023/09/13 07:36:04;;;;;;;2.28;1.65;;;;;;;8.61;100.00;101090.13;4799443;29;20558;-78
2023/09/13 07:38:32;;;;;;;3.63;1.65;;;;;;;8.69;100.00;101085.94;4798185;29;20041;-78
2023/09/13 07:41:02;;;;;;;4.25;1.83;;;;;;;8.82;100.00;101085.06;4797531;29;20121;-78
2023/09/13 07:43:32;;;;;;;5.55;2.17;;;;;;;8.87;100.00;101082.06;4790801;29;20035;-79
2023/09/13 07:46:01;;;;;;;3.55;2.10;;;;;;;8.92;100.00;101080.75;4797117;29;20453;-79
2023/09/13 07:48:28;;;;;;;3.72;2.10;;;;;;;8.94;100.00;101083.25;4829356;29;21085;-78
2023/09/13 07:50:56;;;;;;;2.58;1.92;;;;;;;9.03;100.00;101082.53;4786905;29;20038;-79
2023/09/13 07:53:25;;;;;;;5.47;1.73;;;;;;;9.15;100.00;101095.75;4807549;29;20833;-78
2023/09/13 07:55:55;;;;;;;4.80;2.60;;;;;;;9.25;100.00;101093.25;4804543;29;20104;-78
2023/09/13 07:58:23;;;;;;;2.70;2.15;;;;;;;9.25;100.00;101098.53;4819929;29;20098;-78
2023/09/13 08:00:51;;;;;;;4.22;2.05;;;;;;;9.39;100.00;101106.19;4834959;29;20045;-78
2023/09/13 08:03:18;;;;;;;3.65;2.10;;;;;;;9.47;100.00;101110.88;4814157;29;20504;-78
2023/09/13 08:05:47;;;;;;;5.60;2.15;;;;;;;9.55;100.00;101105.84;4801476;29;20050;-78
2023/09/13 08:08:22;;;;;;;2.92;1.73;;;;;;;9.56;100.00;101106.66;4789818;29;20038;-78
2023/09/13 08:10:53;;;;;;;3.30;1.80;;;;;;;9.63;100.00;101104.38;4822068;29;20506;-79
2023/09/13 08:13:22;;;;;;;6.47;2.20;;;;;;;9.67;100.00;101108.44;4842779;29;20049;-78
2023/09/13 08:15:51;;;;;;;4.60;2.40;;;;;;;9.72;100.00;101110.72;4816557;29;20086;-79
2023/09/13 08:18:21;;;;;;;4.72;2.00;;;;;;;9.78;100.00;101102.31;4789612;29;20088;-79
2023/09/13 08:20:51;;;;;;;2.50;2.10;;;;;;;9.82;100.00;101092.34;4819598;29;20034;-79
2023/09/13 08:23:21;;;;;;;5.93;2.50;;;;;;;9.84;100.00;101093.06;4802959;29;20043;-77
2023/09/13 08:25:50;;;;;;;4.63;2.10;;;;;;;9.86;100.00;101091.16;4810514;29;20396;-77
2023/09/13 08:28:19;;;;;;;6.18;2.78;;;;;;;9.98;100.00;101090.16;4811502;29;20487;-78
2023/09/13 08:30:49;;;;;;;6.60;2.78;;;;;;;10.04;100.00;101087.00;4805066;29;20305;-79
2023/09/13 08:33:16;;;;;;;6.20;2.70;;;;;;;10.16;100.00;101094.91;4838533;29;20053;-79
2023/09/13 08:35:44;;;;;;;3.08;1.80;;;;;;;10.23;100.00;101089.94;4832051;29;20100;-77
2023/09/13 08:38:13;;;;;;;10.27;2.67;;;;;;;10.32;100.00;101091.81;4781130;29;20038;-80
2023/09/13 08:40:43;;;;;;;7.63;2.67;;;;;;;10.41;100.00;101084.94;4798214;29;20708;-79
2023/09/13 08:43:12;;;;;;;8.48;2.80;;;;;;;10.50;100.00;101075.44;4808402;29;20526;-79
2023/09/13 08:45:41;;;;;;;7.63;2.65;;;;;;;10.60;100.00;101073.72;4809441;29;20041;-80
2023/09/13 08:48:11;;;;;;;8.07;2.78;;;;;;;10.70;100.00;101073.78;4807095;29;20038;-80
2023/09/13 08:50:40;;;;;;;11.10;3.42;;;;;;;10.80;100.00;101063.25;4797222;29;20046;-80
2023/09/13 08:53:10;;;;;;;5.18;2.30;;;;;;;10.91;100.00;101062.31;4811591;29;20043;-79
2023/09/13 08:55:39;;;;;;;16.38;3.63;;;;;;;10.98;100.00;101047.63;4813564;29;20045;-78
2023/09/13 08:58:08;;;;;;;23.30;4.45;;;;;;;11.07;100.00;101053.91;4841406;29;20058;-79
2023/09/13 09:00:40;;;;;;;21.90;4.00;;;;;;;11.16;100.00;101066.34;4815931;29;20431;-79
2023/09/13 09:03:12;;;;;;;29.83;4.70;;;;;;;11.15;100.00;101064.69;4795291;29;20091;-78
2023/09/13 09:05:41;;;;;;;24.33;4.15;;;;;;;11.13;100.00;101052.56;4794894;29;20408;-80
2023/09/13 09:08:10;;;;;;;17.35;3.47;;;;;;;11.14;100.00;101070.94;4788978;29;20046;-79
2023/09/13 09:10:37;;;;;;;7.57;2.83;;;;;;;11.24;100.00;101067.50;4792985;29;20051;-79
2023/09/13 09:13:10;;;;;;;17.85;3.83;;;;;;;11.41;100.00;101072.16;4804064;29;20035;-79
2023/09/13 09:15:40;;;;;;;10.32;3.13;;;;;;;11.53;100.00;101057.00;4805545;29;20034;-80
2023/09/13 09:18:13;;;;;;;19.88;3.88;;;;;;;11.72;100.00;101054.53;4812248;29;20069;-79
2023/09/13 09:20:44;;;;;;;16.23;4.00;;;;;;;11.85;100.00;101068.34;4820928;29;20089;-79
2023/09/13 09:23:14;;;;;;;15.73;3.40;;;;;;;11.99;100.00;101063.63;4783081;29;20045;-79
2023/09/13 09:25:45;;;;;;;9.75;2.83;;;;;;;12.14;100.00;101064.06;4829011;29;20029;-79
2023/09/13 09:28:15;;;;;;;9.48;3.20;;;;;;;12.25;100.00;101060.44;4793562;29;20381;-78
2023/09/13 09:30:45;;;;;;;11.75;3.78;;;;;;;12.40;100.00;101064.38;4816247;29;20048;-79
2023/09/13 09:33:15;;;;;;;16.70;3.55;;;;;;;12.56;100.00;101056.78;4816126;29;20038;-80
2023/09/13 09:35:52;;;;;;;8.45;3.38;;;;;;;12.68;100.00;101054.84;4794338;29;20055;-80
2023/09/13 09:38:22;;;;;;;16.83;3.50;;;;;;;12.76;100.00;101052.28;4810614;29;20030;-80
2023/09/13 09:40:50;;;;;;;7.40;2.63;;;;;;;12.85;100.00;101063.88;4825434;29;20034;-80
2023/09/13 09:43:18;;;;;;;12.70;3.20;;;;;;;12.90;100.00;101058.94;4812306;29;20030;-80
2023/09/13 09:45:48;;;;;;;9.63;3.58;;;;;;;12.93;100.00;101053.38;4808366;29;20046;-80
2023/09/13 09:48:19;;;;;;;8.60;3.00;;;;;;;13.00;100.00;101056.25;4812275;29;20507;-80
2023/09/13 09:50:52;;;;;;;11.25;3.15;;;;;;;13.08;100.00;101051.06;4789454;29;20054;-79
2023/09/13 09:53:23;;;;;;;7.38;2.92;;;;;;;13.13;100.00;101054.13;4806344;29;20107;-79
2023/09/13 09:55:53;;;;;;;6.60;2.58;;;;;;;13.19;100.00;101043.88;4789541;29;20543;-79
2023/09/13 09:58:23;;;;;;;4.32;2.47;;;;;;;13.26;100.00;101040.53;4785045;29;20139;-81
2023/09/13 10:00:54;;;;;;;6.30;3.10;;;;;;;13.27;100.00;101036.88;4806814;29;20195;-80
2023/09/13 10:03:23;;;;;;;7.93;2.75;;;;;;;13.30;100.00;101037.56;4805493;29;20046;-81
2023/09/13 10:05:55;;;;;;;5.30;2.35;;;;;;;13.35;100.00;101043.25;4790892;29;20034;-80
2023/09/13 10:08:51;;;;;;;5.65;2.53;;;;;;;13.40;100.00;101035.69;4820268;29;20065;-81
2023/09/13 10:11:22;;;;;;;8.50;2.67;;;;;;;13.47;100.00;101030.63;4773132;29;20533;-78
2023/09/13 10:13:53;;;;;;;6.20;2.60;;;;;;;13.51;100.00;101027.56;4805470;29;20131;-80
2023/09/13 10:16:32;;;;;;;9.82;2.08;;;;;;;13.62;100.00;101025.66;4832680;29;20145;-80
2023/09/13 10:19:04;;;;;;;10.95;2.35;;;;;;;13.69;100.00;101024.09;4838825;29;20038;-79
2023/09/13 10:21:32;;;;;;;11.55;3.15;;;;;;;13.88;100.00;101012.47;4819221;29;20047;-82
2023/09/13 10:24:06;;;;;;;7.47;2.63;;;;;;;14.05;100.00;101003.81;4812505;29;20045;-82
2023/09/13 10:26:35;;;;;;;8.68;2.20;;;;;;;14.10;100.00;101022.78;4822065;29;20045;-80
2023/09/13 10:29:17;;;;;;;6.90;2.53;;;;;;;14.22;100.00;101015.41;4818125;29;20578;-82
2023/09/13 10:31:47;;;;;;;8.68;2.30;;;;;;;14.25;100.00;101002.63;4837938;29;20037;-80
2023/09/13 10:34:23;;;;;;;5.88;2.38;;;;;;;14.34;100.00;101006.19;4774061;29;20034;-80
2023/09/13 10:37:08;;;;;;;;;;;;;;;14.42;100.00;100988.59;4803646;29;20042;-81
2023/09/13 10:39:48;;;;;;;6.90;2.63;;;;;;;14.70;100.00;100975.97;4813260;29;19924;-80
2023/09/13 10:42:19;;;;;;;5.72;2.08;;;;;;;15.00;100.00;100981.78;4803832;29;20078;-78
2023/09/13 10:44:49;;;;;;;7.50;2.75;;;;;;;15.21;100.00;100969.88;4801141;29;20192;-80
2023/09/13 10:47:20;;;;;;;5.97;2.58;;;;;;;15.36;100.00;100982.56;4821427;29;20117;-81
2023/09/13 10:49:51;;;;;;;5.32;2.17;;;;;;;15.38;100.00;100972.59;4826185;29;20034;-81
2023/09/13 10:52:21;;;;;;;2.53;1.67;;;;;;;15.36;100.00;100964.78;4784206;29;20450;-80
2023/09/13 10:54:53;;;;;;;4.65;2.35;;;;;;;15.32;100.00;100957.28;4827210;29;20069;-81
2023/09/13 10:57:24;;;;;;;8.10;2.25;;;;;;;15.36;100.00;100947.94;4815160;29;20068;-81
2023/09/13 10:59:53;;;;;;;6.93;2.35;;;;;;;15.34;100.00;100942.78;4804583;29;20046;-81
2023/09/13 11:02:22;;;;;;;4.93;2.28;;;;;;;15.29;100.00;100939.78;4797598;29;20523;-81
2023/09/13 11:04:51;;;;;;;5.60;2.20;;;;;;;15.22;100.00;100944.94;4803940;29;20061;-82
2023/09/13 11:07:21;;;;;;;8.60;2.47;;;;;;;15.21;100.00;100950.44;4792267;29;20034;-81
2023/09/13 11:09:50;;;;;;;8.85;2.00;;;;;;;15.17;100.00;100955.22;4806743;29;20042;-81
2023/09/13 11:12:27;;;;;;;7.38;2.33;;;;;;;15.12;100.00;100961.03;4793296;29;20100;-80
2023/09/13 11:15:11;;;;;;;3.38;2.10;;;;;;;15.03;100.00;100945.19;4805784;29;21142;-79
2023/09/13 11:17:43;;;;;;;8.63;1.95;;;;;;;14.89;100.00;100942.19;4805255;29;20042;-82
2023/09/13 11:20:38;;;;;;;3.78;2.10;;;;;;;14.85;100.00;100939.00;4786865;29;20081;-80
2023/09/13 11:23:14;;;;;;;5.78;1.85;;;;;;;14.81;100.00;100948.28;4788550;29;20034;-81
2023/09/13 11:25:54;;;;;;;4.32;1.70;;;;;;;14.77;100.00;100938.91;4824311;29;20098;-79
2023/09/13 11:28:30;;;;;;;3.75;2.00;;;;;;;14.75;100.00;100940.91;4801831;29;20050;-82
2023/09/13 11:31:02;;;;;;;;;;;;;;;14.64;100.00;100944.69;4811681;29;20121;-77
2023/09/13 11:33:39;;;;;;;4.40;1.92;;;;;;;14.71;100.00;100939.56;4791490;29;19927;-79
2023/09/13 11:36:09;;;;;;;6.45;1.92;;;;;;;14.72;100.00;100939.41;4792817;29;20041;-80